Time;durP1;ratioP1;P1;durP2;ratioP2;P2;SDS_P1;SDS_P2;PMS_P1;PMS_P2;Temp;Humidity;BMP_temperature;BMP_pressure;BME280_temperature;BME280_humidity;BME280_pressure;Samples;Min_cycle;Max_cycle;Signal;HPM_P1;HPM_P2
2021/04/08 00:02:10;;;;;;;8.10;2.47;;;3.40;99.90;;;;;;5037269;28;20433;-51
2021/04/08 00:04:36;;;;;;;3.27;1.83;;;3.40;99.90;;;;;;5037982;28;20453;-51
2021/04/08 00:07:03;;;;;;;10.17;1.90;;;3.30;99.90;;;;;;5037278;28;20456;-52
2021/04/08 00:09:29;;;;;;;12.10;1.50;;;3.30;99.90;;;;;;5037263;28;20441;-50
2021/04/08 00:11:57;;;;;;;4.03;2.27;;;3.40;99.90;;;;;;5036434;28;20437;-53
2021/04/08 00:14:23;;;;;;;14.03;2.40;;;3.40;99.90;;;;;;5037813;28;20440;-53
2021/04/08 00:16:49;;;;;;;10.47;2.37;;;3.40;99.90;;;;;;5037396;28;20472;-54
2021/04/08 00:19:16;;;;;;;4.20;2.93;;;3.50;99.90;;;;;;5037500;28;20441;-52
2021/04/08 00:21:42;;;;;;;4.30;2.50;;;3.50;99.90;;;;;;5036848;28;20441;-52
2021/04/08 00:24:08;;;;;;;4.70;2.60;;;3.40;99.90;;;;;;5037500;28;20429;-45
2021/04/08 00:26:34;;;;;;;8.43;1.70;;;3.50;99.90;;;;;;5037245;28;20424;-48
2021/04/08 00:29:01;;;;;;;4.10;1.83;;;3.40;99.90;;;;;;5037421;28;20456;-48
2021/04/08 00:31:28;;;;;;;3.00;1.60;;;3.40;99.90;;;;;;5037384;28;20449;-48
2021/04/08 00:33:54;;;;;;;6.57;1.90;;;3.40;99.90;;;;;;5037216;28;20504;-50
2021/04/08 00:36:20;;;;;;;5.83;2.70;;;3.50;99.90;;;;;;5036884;28;20472;-50
2021/04/08 00:38:46;;;;;;;6.40;2.53;;;3.50;99.90;;;;;;5037034;28;20436;-53
2021/04/08 00:41:12;;;;;;;13.13;2.50;;;3.50;99.90;;;;;;5036610;28;20432;-51
2021/04/08 00:43:38;;;;;;;5.60;1.77;;;3.40;99.90;;;;;;5037011;28;20472;-53
2021/04/08 00:46:06;;;;;;;8.60;1.60;;;3.50;99.90;;;;;;5036931;28;20810;-51
2021/04/08 00:48:32;;;;;;;3.20;1.60;;;3.40;99.90;;;;;;5037400;28;20448;-48
2021/04/08 00:50:58;;;;;;;8.53;1.93;;;3.40;99.90;;;;;;5037602;28;20429;-51
2021/04/08 00:53:28;;;;;;;8.23;2.60;;;3.30;99.90;;;;;;5037497;28;20901;-48
2021/04/08 00:55:55;;;;;;;3.67;1.67;;;3.30;99.90;;;;;;5037605;28;20441;-46
2021/04/08 00:58:22;;;;;;;9.63;2.00;;;3.30;99.90;;;;;;5037744;28;20425;-46
2021/04/08 01:00:49;;;;;;;6.27;2.50;;;3.40;99.90;;;;;;5037730;28;20430;-47
2021/04/08 01:03:16;;;;;;;5.60;2.33;;;3.40;99.90;;;;;;5037817;28;20441;-49
2021/04/08 01:05:43;;;;;;;6.40;2.50;;;3.40;99.90;;;;;;5037957;28;20441;-54
2021/04/08 01:08:09;;;;;;;7.50;2.10;;;3.40;99.90;;;;;;5037344;28;20445;-48
2021/04/08 01:10:35;;;;;;;4.37;2.13;;;3.40;99.90;;;;;;5037230;28;20447;-49
2021/04/08 01:13:03;;;;;;;5.17;2.17;;;3.40;99.90;;;;;;5037413;28;20465;-50
2021/04/08 01:15:31;;;;;;;6.80;2.10;;;3.40;99.90;;;;;;5037056;28;20428;-48
2021/04/08 01:18:02;;;;;;;5.27;1.93;;;3.40;99.90;;;;;;5036906;28;20464;-48
2021/04/08 01:20:50;;;;;;;4.50;2.50;;;3.40;99.90;;;;;;5036875;28;20437;-51
2021/04/08 01:23:49;;;;;;;10.00;2.23;;;3.40;99.90;;;;;;5039427;28;20409;-53
2021/04/08 01:26:52;;;;;;;11.50;3.17;;;3.40;99.90;;;;;;5040564;28;20450;-54
2021/04/08 01:29:28;;;;;;;5.93;1.90;;;3.30;99.90;;;;;;5040481;28;20448;-52
2021/04/08 01:31:57;;;;;;;6.20;2.43;;;3.40;99.90;;;;;;5040349;28;20487;-56
2021/04/08 01:34:26;;;;;;;6.00;2.00;;;3.40;99.90;;;;;;5039701;28;20472;-52
2021/04/08 01:36:56;;;;;;;11.93;2.73;;;3.40;99.90;;;;;;5039477;28;20425;-49
2021/04/08 01:39:24;;;;;;;8.40;2.37;;;3.50;99.90;;;;;;5040065;28;20476;-50
2021/04/08 01:41:54;;;;;;;9.30;2.20;;;3.50;99.90;;;;;;5039929;28;20456;-51
2021/04/08 01:44:22;;;;;;;2.30;1.80;;;3.50;99.90;;;;;;5040570;28;20421;-52
2021/04/08 01:46:52;;;;;;;9.43;2.67;;;3.40;99.90;;;;;;5039730;28;20662;-49
2021/04/08 01:49:20;;;;;;;6.23;2.07;;;3.40;99.90;;;;;;5040584;28;20422;-52
2021/04/08 01:51:46;;;;;;;2.63;1.50;;;3.40;99.90;;;;;;5040398;28;20460;-49
2021/04/08 01:54:14;;;;;;;5.37;2.50;;;3.40;99.90;;;;;;5039914;28;20484;-48
2021/04/08 01:56:43;;;;;;;4.30;2.40;;;3.40;99.90;;;;;;5039744;28;20468;-48
2021/04/08 01:59:14;;;;;;;4.10;2.17;;;3.40;99.90;;;;;;5039465;28;20445;-52
2021/04/08 02:01:42;;;;;;;6.93;1.90;;;3.40;99.90;;;;;;5039660;28;20405;-49
2021/04/08 02:04:10;;;;;;;3.43;2.07;;;3.40;99.90;;;;;;5039615;28;20428;-51
2021/04/08 02:06:40;;;;;;;1.63;1.13;;;3.40;99.90;;;;;;5040135;28;20429;-48
2021/04/08 02:09:06;;;;;;;7.40;2.30;;;3.40;99.90;;;;;;5039776;28;20413;-50
2021/04/08 02:11:33;;;;;;;4.57;1.73;;;3.40;99.90;;;;;;5040010;28;20472;-52
2021/04/08 02:14:00;;;;;;;7.67;2.33;;;3.40;99.90;;;;;;5039442;28;20461;-49
2021/04/08 02:16:27;;;;;;;9.60;2.00;;;3.40;99.90;;;;;;5039476;28;20452;-51
2021/04/08 02:18:55;;;;;;;7.80;2.40;;;3.40;99.90;;;;;;5039532;28;20505;-48
2021/04/08 02:21:22;;;;;;;5.07;2.50;;;3.40;99.90;;;;;;5039751;28;20438;-50
2021/04/08 02:23:51;;;;;;;15.60;2.40;;;3.40;99.90;;;;;;5039309;28;20449;-49
2021/04/08 02:26:18;;;;;;;6.67;2.20;;;3.50;99.90;;;;;;5039109;28;20453;-50
2021/04/08 02:28:46;;;;;;;8.47;2.30;;;3.40;99.90;;;;;;5039846;28;20467;-53
2021/04/08 02:31:12;;;;;;;4.80;2.03;;;3.40;99.90;;;;;;5039773;28;20441;-48
2021/04/08 02:33:41;;;;;;;9.23;3.27;;;3.40;99.90;;;;;;5038441;28;20504;-48
2021/04/08 02:36:07;;;;;;;4.40;2.40;;;3.30;99.90;;;;;;5038986;28;20426;-48
2021/04/08 02:38:37;;;;;;;6.30;2.40;;;3.40;99.90;;;;;;5039693;28;20444;-47
2021/04/08 02:41:07;;;;;;;4.63;2.13;;;3.40;99.90;;;;;;5038745;28;20437;-53
2021/04/08 02:43:34;;;;;;;4.73;3.10;;;3.40;99.90;;;;;;5038883;28;20425;-49
2021/04/08 02:46:00;;;;;;;5.23;2.33;;;3.40;99.90;;;;;;5038619;28;20480;-50
2021/04/08 02:48:27;;;;;;;4.70;2.00;;;3.40;99.90;;;;;;5039159;28;20433;-50
2021/04/08 02:50:54;;;;;;;2.63;2.00;;;3.40;99.90;;;;;;5038596;28;20449;-49
2021/04/08 02:53:26;;;;;;;5.73;1.60;;;3.40;99.90;;;;;;5038955;28;20465;-52
2021/04/08 02:55:57;;;;;;;3.57;1.80;;;3.40;99.90;;;;;;5038647;28;20429;-51
2021/04/08 02:58:28;;;;;;;8.40;1.37;;;3.40;99.90;;;;;;5038816;28;20432;-52
2021/04/08 03:01:00;;;;;;;4.60;1.63;;;3.30;99.90;;;;;;5038699;28;20412;-53
2021/04/08 03:03:33;;;;;;;15.73;3.40;;;3.30;99.90;;;;;;5038448;28;20413;-51
2021/04/08 03:06:03;;;;;;;12.27;2.57;;;3.30;99.90;;;;;;5038576;28;20476;-51
2021/04/08 03:08:31;;;;;;;6.70;1.30;;;3.30;99.90;;;;;;5037490;28;20409;-49
2021/04/08 03:11:00;;;;;;;5.30;1.80;;;3.40;99.90;;;;;;5038900;28;20425;-48
2021/04/08 03:13:30;;;;;;;5.67;1.83;;;3.50;99.90;;;;;;5038409;28;20484;-46
2021/04/08 03:15:57;;;;;;;8.37;2.90;;;3.50;99.90;;;;;;5038191;28;20924;-45
2021/04/08 03:18:24;;;;;;;9.00;2.57;;;3.50;99.90;;;;;;5038269;28;20437;-49
2021/04/08 03:20:53;;;;;;;7.67;2.30;;;3.50;99.90;;;;;;5038061;28;20437;-51
2021/04/08 03:23:24;;;;;;;6.60;2.90;;;3.50;99.90;;;;;;5037786;28;20417;-52
2021/04/08 03:25:50;;;;;;;5.33;1.80;;;3.50;99.90;;;;;;5037664;28;20409;-48
2021/04/08 03:28:18;;;;;;;6.93;2.60;;;3.60;99.90;;;;;;5037379;28;20445;-48
2021/04/08 03:30:46;;;;;;;7.87;2.30;;;3.50;99.90;;;;;;5037923;28;20437;-50
2021/04/08 03:33:14;;;;;;;2.50;1.50;;;3.50;99.90;;;;;;5036864;28;20504;-48
2021/04/08 03:35:45;;;;;;;11.83;2.43;;;3.50;99.90;;;;;;5037547;28;20425;-53
2021/04/08 03:38:12;;;;;;;12.00;2.03;;;3.50;99.90;;;;;;5038072;28;20445;-52
2021/04/08 03:40:38;;;;;;;9.33;2.97;;;3.50;99.90;;;;;;5037976;28;20445;-51
2021/04/08 03:43:06;;;;;;;6.30;2.27;;;3.50;99.90;;;;;;5037488;28;20472;-50
2021/04/08 03:45:32;;;;;;;15.97;3.53;;;3.50;99.90;;;;;;5037733;28;20477;-53
2021/04/08 03:48:01;;;;;;;4.67;2.30;;;3.50;99.90;;;;;;5038294;28;20441;-48
2021/04/08 03:50:29;;;;;;;10.00;3.10;;;3.40;99.90;;;;;;5038423;28;20469;-48
2021/04/08 03:52:56;;;;;;;14.20;3.20;;;3.40;99.90;;;;;;5037911;28;20468;-51
2021/04/08 03:55:24;;;;;;;5.90;2.23;;;3.30;99.90;;;;;;5038455;28;20437;-53
2021/04/08 03:57:51;;;;;;;10.13;3.03;;;3.20;99.90;;;;;;5037996;28;20445;-51
2021/04/08 04:00:19;;;;;;;22.37;2.70;;;3.10;99.90;;;;;;5038183;28;20425;-47
2021/04/08 04:02:46;;;;;;;8.93;2.70;;;3.00;99.90;;;;;;5037999;28;20508;-46
2021/04/08 04:05:14;;;;;;;6.50;2.37;;;3.00;99.90;;;;;;5037680;28;20441;-50
2021/04/08 04:07:48;;;;;;;4.60;2.80;;;3.00;99.90;;;;;;5038093;28;20449;-49
2021/04/08 04:10:15;;;;;;;9.90;3.50;;;2.90;99.90;;;;;;5038208;28;20429;-50
2021/04/08 04:12:42;;;;;;;4.20;2.33;;;2.80;99.90;;;;;;5037427;28;20484;-52
2021/04/08 04:15:10;;;;;;;6.50;2.97;;;2.80;99.90;;;;;;5037451;28;20503;-51
2021/04/08 04:17:36;;;;;;;4.80;2.73;;;2.70;99.90;;;;;;5037374;28;20449;-52
2021/04/08 04:20:05;;;;;;;2.87;1.80;;;2.80;99.90;;;;;;5037724;28;20429;-51
2021/04/08 04:22:32;;;;;;;10.00;3.47;;;2.80;99.90;;;;;;5037602;28;20456;-53
2021/04/08 04:24:58;;;;;;;7.67;3.43;;;2.80;99.90;;;;;;5037551;28;20460;-52
2021/04/08 04:27:24;;;;;;;4.37;2.90;;;2.80;99.90;;;;;;5037691;28;20433;-52
2021/04/08 04:29:50;;;;;;;6.50;2.77;;;2.80;99.90;;;;;;5037302;28;20438;-52
2021/04/08 04:32:17;;;;;;;7.73;3.90;;;2.80;99.90;;;;;;5037671;28;20449;-51
2021/04/08 04:34:43;;;;;;;7.47;3.33;;;2.80;99.90;;;;;;5038018;28;20429;-51
2021/04/08 04:37:11;;;;;;;6.97;3.33;;;2.80;99.90;;;;;;5037798;28;20449;-53
2021/04/08 04:39:39;;;;;;;12.57;4.30;;;2.80;99.90;;;;;;5037937;28;20432;-48
2021/04/08 04:42:07;;;;;;;6.80;2.57;;;2.80;99.90;;;;;;5038055;28;20434;-49
2021/04/08 04:44:34;;;;;;;8.83;2.73;;;2.90;99.90;;;;;;5037692;28;20465;-51
2021/04/08 04:47:02;;;;;;;24.47;4.30;;;2.90;99.90;;;;;;5037422;28;20485;-47
2021/04/08 04:49:28;;;;;;;3.90;2.27;;;2.90;99.90;;;;;;5037286;28;20449;-51
2021/04/08 04:51:54;;;;;;;9.27;2.80;;;3.00;99.90;;;;;;5037381;28;20452;-53
2021/04/08 04:54:21;;;;;;;5.63;3.00;;;3.00;99.90;;;;;;5037089;28;20472;-49
2021/04/08 04:56:48;;;;;;;8.83;2.70;;;3.00;99.90;;;;;;5038429;28;20456;-51
2021/04/08 04:59:15;;;;;;;3.23;1.80;;;3.00;99.90;;;;;;5041459;28;20437;-53
2021/04/08 05:01:41;;;;;;;15.33;3.10;;;3.00;99.90;;;;;;5041227;28;20856;-52
2021/04/08 05:04:07;;;;;;;6.80;2.53;;;3.00;99.90;;;;;;5041084;28;20441;-51
2021/04/08 05:06:33;;;;;;;9.00;3.13;;;3.00;99.90;;;;;;5041422;28;20445;-49
2021/04/08 05:08:59;;;;;;;11.57;4.73;;;3.00;99.90;;;;;;5041835;28;20428;-50
2021/04/08 05:11:26;;;;;;;8.37;3.23;;;3.00;99.90;;;;;;5040640;28;20448;-50
2021/04/08 05:13:53;;;;;;;11.67;2.70;;;3.10;99.90;;;;;;5040894;28;20504;-49
2021/04/08 05:16:20;;;;;;;11.47;4.00;;;3.10;99.90;;;;;;5040524;28;20445;-50
2021/04/08 05:18:46;;;;;;;5.40;2.50;;;3.10;99.90;;;;;;5040834;28;20461;-50
2021/04/08 05:21:12;;;;;;;7.70;3.10;;;3.20;99.90;;;;;;5040513;28;20453;-52
2021/04/08 05:23:39;;;;;;;8.23;2.40;;;3.10;99.90;;;;;;5041081;28;20429;-53
2021/04/08 05:26:05;;;;;;;5.03;2.80;;;3.10;99.90;;;;;;5040434;28;20529;-51
2021/04/08 05:28:31;;;;;;;12.67;2.30;;;3.10;99.90;;;;;;5040559;28;20472;-54
2021/04/08 05:30:58;;;;;;;2.90;1.93;;;3.10;99.90;;;;;;5040441;28;20453;-52
2021/04/08 05:33:24;;;;;;;6.97;3.27;;;3.10;99.90;;;;;;5040501;28;20472;-52
2021/04/08 05:35:50;;;;;;;5.43;2.80;;;3.10;99.90;;;;;;5040723;28;20437;-53
2021/04/08 05:38:17;;;;;;;5.53;3.50;;;3.20;99.90;;;;;;5038994;28;20433;-52
2021/04/08 05:40:43;;;;;;;3.37;1.60;;;3.20;99.90;;;;;;5034628;28;20449;-50
2021/04/08 05:43:09;;;;;;;5.27;2.87;;;3.20;99.90;;;;;;5035961;28;20429;-46
2021/04/08 05:45:38;;;;;;;11.50;4.20;;;3.20;99.90;;;;;;5022300;28;20476;-50
2021/04/08 05:48:06;;;;;;;3.80;2.63;;;3.20;99.90;;;;;;5014056;28;20445;-47
2021/04/08 05:50:32;;;;;;;6.27;3.23;;;3.30;99.90;;;;;;5006082;28;20525;-46
2021/04/08 05:52:59;;;;;;;3.50;2.73;;;3.30;99.90;;;;;;5030113;28;20475;-52
2021/04/08 05:55:25;;;;;;;8.60;2.83;;;3.30;99.90;;;;;;5032205;28;20453;-56
2021/04/08 05:57:51;;;;;;;12.70;3.37;;;3.40;99.90;;;;;;5032867;28;20441;-53
2021/04/08 06:00:18;;;;;;;6.20;3.20;;;3.40;99.90;;;;;;5033847;28;20441;-56
2021/04/08 06:02:44;;;;;;;10.60;3.60;;;3.50;99.90;;;;;;5033399;28;20449;-55
2021/04/08 06:05:13;;;;;;;10.27;3.80;;;3.60;99.90;;;;;;5032178;28;20452;-52
2021/04/08 06:07:39;;;;;;;7.53;2.93;;;3.60;99.90;;;;;;5034790;28;20445;-55
2021/04/08 06:10:06;;;;;;;7.30;3.10;;;3.70;99.90;;;;;;5034291;28;20441;-54
2021/04/08 06:12:33;;;;;;;7.33;3.20;;;3.60;99.90;;;;;;5028163;28;20445;-52
2021/04/08 06:15:00;;;;;;;7.37;3.13;;;3.60;99.90;;;;;;5029698;28;20441;-55
2021/04/08 06:17:30;;;;;;;5.93;2.83;;;3.60;99.90;;;;;;5031809;28;20451;-56
2021/04/08 06:19:56;;;;;;;10.10;3.20;;;3.70;99.90;;;;;;5030501;28;20451;-56
2021/04/08 06:22:23;;;;;;;12.00;4.57;;;3.80;99.90;;;;;;5027641;28;20894;-55
2021/04/08 06:24:50;;;;;;;6.83;3.80;;;3.80;99.90;;;;;;5021895;28;20437;-54
2021/04/08 06:27:16;;;;;;;8.27;2.73;;;3.80;99.90;;;;;;5020338;28;20453;-52
2021/04/08 06:29:42;;;;;;;8.27;3.47;;;3.80;99.90;;;;;;5005319;28;20430;-55
2021/04/08 06:32:08;;;;;;;5.70;3.00;;;3.80;99.90;;;;;;5021147;28;20452;-57
2021/04/08 06:34:35;;;;;;;13.30;3.33;;;3.80;99.90;;;;;;5021777;28;20531;-53
2021/04/08 06:37:01;;;;;;;7.63;3.83;;;3.80;99.90;;;;;;5019749;28;20460;-53
2021/04/08 06:39:29;;;;;;;7.63;2.63;;;3.90;99.90;;;;;;5021279;28;20441;-54
2021/04/08 06:41:57;;;;;;;7.03;3.17;;;3.90;99.90;;;;;;5019199;28;20446;-53
2021/04/08 06:44:26;;;;;;;6.87;2.80;;;3.90;99.90;;;;;;5003423;28;20442;-50
2021/04/08 06:46:55;;;;;;;5.73;3.33;;;3.90;99.90;;;;;;5015668;28;20477;-55
2021/04/08 06:49:32;;;;;;;5.13;2.50;;;4.00;99.90;;;;;;5022523;28;20456;-53
2021/04/08 06:51:59;;;;;;;5.60;3.00;;;4.00;99.90;;;;;;5022801;28;20451;-54
2021/04/08 06:54:26;;;;;;;10.00;3.57;;;3.90;99.90;;;;;;5014895;28;20979;-54
2021/04/08 06:56:54;;;;;;;6.23;3.10;;;3.90;99.90;;;;;;5015984;28;20450;-51
2021/04/08 06:59:21;;;;;;;7.10;3.30;;;3.90;99.90;;;;;;5014653;28;20449;-52
2021/04/08 07:01:48;;;;;;;12.13;5.40;;;3.90;99.90;;;;;;5021731;28;20472;-54
2021/04/08 07:04:15;;;;;;;7.83;3.10;;;3.90;99.90;;;;;;5022303;28;20899;-50
2021/04/08 07:06:43;;;;;;;8.33;2.90;;;4.00;99.90;;;;;;5014860;28;20450;-57
2021/04/08 07:09:12;;;;;;;8.73;2.67;;;4.10;99.90;;;;;;5005721;28;20469;-54
2021/04/08 07:11:40;;;;;;;12.03;3.50;;;4.10;99.90;;;;;;5024042;28;20485;-52
2021/04/08 07:14:09;;;;;;;10.83;3.40;;;4.20;99.90;;;;;;5036140;28;20480;-52
2021/04/08 07:16:37;;;;;;;5.00;2.43;;;4.20;99.90;;;;;;5036422;28;20449;-56
2021/04/08 07:19:06;;;;;;;3.47;1.50;;;4.30;99.90;;;;;;5025032;28;20446;-53
2021/04/08 07:21:34;;;;;;;11.40;3.73;;;4.40;99.90;;;;;;5026116;28;20457;-56
2021/04/08 07:24:14;;;;;;;7.90;3.10;;;4.30;99.90;;;;;;5023610;28;20464;-56
2021/04/08 07:26:59;;;;;;;9.03;5.33;;;4.30;99.90;;;;;;5032052;28;20449;-57
2021/04/08 07:29:47;;;;;;;9.33;3.57;;;4.30;99.90;;;;;;5021969;28;20466;-56
2021/04/08 07:32:14;;;;;;;5.20;2.50;;;4.30;99.90;;;;;;5023996;28;20417;-54
2021/04/08 07:34:44;;;;;;;6.10;2.60;;;4.30;99.90;;;;;;5030102;28;20509;-55
2021/04/08 07:37:10;;;;;;;4.87;2.30;;;4.20;99.90;;;;;;5023488;28;20477;-55
2021/04/08 07:39:38;;;;;;;12.80;3.30;;;4.30;99.90;;;;;;5026590;28;20445;-53
2021/04/08 07:42:07;;;;;;;6.23;3.00;;;4.30;99.90;;;;;;5019483;28;20480;-51
2021/04/08 07:44:49;;;;;;;9.97;3.07;;;4.40;99.90;;;;;;5022076;28;20437;-55
2021/04/08 07:47:20;;;;;;;9.47;2.80;;;4.50;99.90;;;;;;5001845;28;758940;-52
2021/04/08 07:49:49;;;;;;;6.20;3.03;;;4.60;99.90;;;;;;5020072;28;20477;-53
2021/04/08 07:52:18;;;;;;;12.07;3.10;;;4.70;99.90;;;;;;5027151;28;20460;-54
2021/04/08 07:54:56;;;;;;;9.83;3.03;;;4.80;99.90;;;;;;5033644;28;21060;-52
2021/04/08 07:57:23;;;;;;;8.70;3.27;;;5.00;99.90;;;;;;5013786;28;20537;-56
2021/04/08 07:59:51;;;;;;;9.23;3.10;;;5.20;99.90;;;;;;5012050;28;20453;-53
2021/04/08 08:02:23;;;;;;;6.17;3.07;;;5.30;99.90;;;;;;5016244;28;20928;-53
2021/04/08 08:04:50;;;;;;;5.80;2.40;;;5.40;99.90;;;;;;5016309;28;20457;-55
2021/04/08 08:07:27;;;;;;;9.17;2.23;;;5.60;99.90;;;;;;5017994;28;20445;-54
2021/04/08 08:09:54;;;;;;;7.33;2.57;;;5.50;99.90;;;;;;5017138;28;20533;-54
2021/04/08 08:12:21;;;;;;;11.47;2.50;;;5.60;99.90;;;;;;5016620;28;20546;-57
2021/04/08 08:14:48;;;;;;;8.70;1.93;;;5.70;99.90;;;;;;5020562;28;20570;-54
2021/04/08 08:17:16;;;;;;;4.87;2.63;;;5.60;99.90;;;;;;5021205;28;20449;-53
2021/04/08 08:19:45;;;;;;;14.13;2.33;;;5.60;99.90;;;;;;5018140;28;20437;-62
2021/04/08 08:22:19;;;;;;;9.07;2.40;;;6.00;99.90;;;;;;5004890;28;20470;-54
2021/04/08 08:24:53;;;;;;;10.00;3.10;;;6.50;99.90;;;;;;5011876;28;20533;-50
2021/04/08 08:27:19;;;;;;;3.83;2.03;;;7.00;99.90;;;;;;4997664;28;20595;-53
2021/04/08 08:29:57;;;;;;;4.23;2.00;;;7.60;99.90;;;;;;5009254;28;20957;-54
2021/04/08 08:32:24;;;;;;;11.33;3.10;;;7.60;99.90;;;;;;5014152;28;20512;-53
2021/04/08 08:34:51;;;;;;;17.60;2.73;;;7.30;99.90;;;;;;5020261;28;20554;-54
2021/04/08 08:37:20;;;;;;;7.90;1.90;;;7.50;99.90;;;;;;5020432;28;21158;-56
2021/04/08 08:39:49;;;;;;;15.70;2.83;;;7.70;99.90;;;;;;5013752;28;20442;-53
2021/04/08 08:42:18;;;;;;;5.40;1.73;;;8.50;99.90;;;;;;5011325;28;20446;-51
2021/04/08 08:44:45;;;;;;;5.30;2.43;;;8.50;99.90;;;;;;5014034;28;20899;-52
2021/04/08 08:47:16;;;;;;;10.87;2.60;;;8.20;99.90;;;;;;5015774;28;20549;-52
2021/04/08 08:49:46;;;;;;;3.20;1.37;;;8.10;99.90;;;;;;5022184;28;20557;-55
2021/04/08 08:52:18;;;;;;;7.00;2.37;;;7.80;99.90;;;;;;5024083;28;20449;-52
2021/04/08 08:54:46;;;;;;;7.03;3.60;;;7.50;99.90;;;;;;5012949;28;20487;-53
2021/04/08 08:57:13;;;;;;;7.70;2.97;;;7.50;99.90;;;;;;5020685;28;20496;-55
2021/04/08 08:59:40;;;;;;;7.70;2.10;;;7.70;99.90;;;;;;5015608;28;20442;-56
2021/04/08 09:02:09;;;;;;;2.87;1.70;;;7.70;99.90;;;;;;5017522;28;20488;-52
2021/04/08 09:04:36;;;;;;;3.10;2.23;;;7.60;99.90;;;;;;5019992;28;20441;-54
2021/04/08 09:07:06;;;;;;;8.03;2.47;;;7.30;99.90;;;;;;5019477;28;20461;-58
2021/04/08 09:09:36;;;;;;;3.73;1.57;;;7.20;99.90;;;;;;5019931;28;20777;-56
2021/04/08 09:12:08;;;;;;;3.70;1.70;;;7.20;99.90;;;;;;5018518;28;20535;-56
2021/04/08 09:14:35;;;;;;;5.90;2.10;;;6.80;99.90;;;;;;5019331;28;20484;-52
2021/04/08 09:17:01;;;;;;;8.83;2.40;;;7.00;99.90;;;;;;5019629;28;20532;-55
2021/04/08 09:19:30;;;;;;;8.30;1.77;;;7.40;99.90;;;;;;5020258;28;20504;-55
2021/04/08 09:22:00;;;;;;;5.63;2.63;;;7.60;99.90;;;;;;5017774;28;20468;-53
2021/04/08 09:24:36;;;;;;;1.87;1.20;;;7.40;99.90;;;;;;5027184;28;20453;-52
2021/04/08 09:27:04;;;;;;;3.03;1.30;;;7.40;99.90;;;;;;5015479;28;20456;-52
2021/04/08 09:29:53;;;;;;;7.80;2.03;;;7.40;99.90;;;;;;5019149;28;20794;-56
2021/04/08 09:32:28;;;;;;;6.37;2.33;;;8.00;99.90;;;;;;5017956;28;20542;-54
2021/04/08 09:35:19;;;;;;;2.63;1.30;;;8.70;99.90;;;;;;5020981;28;20476;-53
2021/04/08 09:38:19;;;;;;;4.47;1.53;;;9.00;99.90;;;;;;5017154;28;20506;-54
2021/04/08 09:40:52;;;;;;;3.23;1.63;;;8.60;99.90;;;;;;5017760;28;20481;-54
2021/04/08 09:43:21;;;;;;;9.90;1.87;;;8.30;99.90;;;;;;5014695;28;20448;-54
2021/04/08 09:45:59;;;;;;;4.20;1.70;;;8.00;99.90;;;;;;5018652;28;20485;-54
2021/04/08 09:48:27;;;;;;;6.33;1.60;;;7.90;99.90;;;;;;5008977;28;20547;-53
2021/04/08 09:50:55;;;;;;;4.00;1.57;;;8.80;99.90;;;;;;5011792;28;20582;-54
2021/04/08 09:53:23;;;;;;;4.13;1.30;;;9.00;99.90;;;;;;5011754;28;20542;-58
2021/04/08 09:55:53;;;;;;;13.00;1.50;;;9.00;99.70;;;;;;5003764;28;20595;-55
2021/04/08 09:58:22;;;;;;;5.93;2.33;;;8.80;99.50;;;;;;5008977;28;20445;-54
2021/04/08 10:00:50;;;;;;;5.17;1.87;;;8.40;99.80;;;;;;5002018;28;20457;-55
2021/04/08 10:03:30;;;;;;;7.73;2.90;;;8.20;99.90;;;;;;5002072;28;20469;-56
2021/04/08 10:05:57;;;;;;;2.33;1.40;;;8.00;99.90;;;;;;5008363;28;20779;-55
2021/04/08 10:08:26;;;;;;;7.87;1.33;;;7.70;99.90;;;;;;5015192;28;20441;-55
2021/04/08 10:10:54;;;;;;;2.43;1.80;;;7.40;99.90;;;;;;4990287;28;20495;-55
2021/04/08 10:13:24;;;;;;;5.50;1.60;;;7.60;99.90;;;;;;5010948;28;20567;-59
2021/04/08 10:15:53;;;;;;;2.90;1.23;;;8.00;99.90;;;;;;5013831;28;20460;-52
2021/04/08 10:18:22;;;;;;;8.70;2.00;;;8.40;99.90;;;;;;5007318;28;20457;-55
2021/04/08 10:20:51;;;;;;;2.00;1.23;;;8.20;99.90;;;;;;5012295;28;20460;-55
2021/04/08 10:23:30;;;;;;;8.43;1.73;;;7.80;99.90;;;;;;5006706;28;20456;-54
2021/04/08 10:25:58;;;;;;;5.10;1.20;;;7.50;99.90;;;;;;5000233;28;20450;-48
2021/04/08 10:28:25;;;;;;;2.87;1.53;;;7.60;99.90;;;;;;5006757;28;20527;-50
2021/04/08 10:30:51;;;;;;;3.20;1.37;;;7.90;99.90;;;;;;5012704;28;20536;-49
2021/04/08 10:33:19;;;;;;;5.37;1.20;;;8.70;99.90;;;;;;5003029;28;20477;-47
2021/04/08 10:35:47;;;;;;;6.60;2.27;;;9.30;99.10;;;;;;5000691;28;20450;-47
2021/04/08 10:38:14;;;;;;;4.20;1.60;;;9.60;98.00;;;;;;5004719;28;20438;-48
2021/04/08 10:40:51;;;;;;;2.97;1.40;;;9.80;94.00;;;;;;5009521;28;20445;-49
2021/04/08 10:43:19;;;;;;;1.60;1.40;;;9.30;94.10;;;;;;5012007;28;20477;-49
2021/04/08 10:45:52;;;;;;;6.00;1.10;;;9.00;92.60;;;;;;5007612;28;20476;-47
2021/04/08 10:48:20;;;;;;;7.03;1.40;;;8.90;92.50;;;;;;5019117;28;20464;-52
2021/04/08 10:50:47;;;;;;;5.73;1.80;;;9.60;93.10;;;;;;5018007;28;20456;-48
2021/04/08 10:53:17;;;;;;;6.97;1.67;;;10.40;92.20;;;;;;5015190;28;20488;-50
2021/04/08 10:55:44;;;;;;;4.90;1.20;;;11.00;84.50;;;;;;5013736;28;20468;-51
2021/04/08 10:58:25;;;;;;;5.53;1.57;;;11.20;82.20;;;;;;5011248;28;20585;-50
2021/04/08 11:00:52;;;;;;;2.90;1.30;;;11.20;81.80;;;;;;5015542;28;20464;-48
2021/04/08 11:03:19;;;;;;;4.33;1.33;;;11.30;81.00;;;;;;5011680;28;20856;-49
2021/04/08 11:05:46;;;;;;;7.50;1.23;;;11.00;80.00;;;;;;5016607;28;20456;-51
2021/04/08 11:08:12;;;;;;;1.70;1.30;;;10.90;77.30;;;;;;5020214;28;20483;-49
2021/04/08 11:10:39;;;;;;;2.23;1.17;;;10.60;76.40;;;;;;5017786;28;20464;-49
2021/04/08 11:13:06;;;;;;;4.73;0.93;;;10.30;75.10;;;;;;5016676;28;20445;-48
2021/04/08 11:15:36;;;;;;;4.37;1.60;;;9.60;75.10;;;;;;5017233;28;20523;-48
2021/04/08 11:18:08;;;;;;;5.90;1.43;;;9.30;78.50;;;;;;5018654;28;20906;-48
2021/04/08 11:20:37;;;;;;;2.70;1.27;;;9.00;77.30;;;;;;5022119;23;20501;-48
2021/04/08 11:23:06;;;;;;;3.60;1.40;;;8.80;81.70;;;;;;5012256;23;20493;-50
2021/04/08 11:25:32;;;;;;;3.17;2.00;;;8.50;84.10;;;;;;5010919;28;20458;-47
2021/04/08 11:28:03;;;;;;;2.33;1.60;;;8.40;86.90;;;;;;5013473;28;20457;-45
2021/04/08 11:30:31;;;;;;;4.00;2.20;;;8.50;89.80;;;;;;5010678;28;20442;-50
2021/04/08 11:33:00;;;;;;;2.53;1.30;;;8.40;91.80;;;;;;5008019;28;20469;-49
2021/04/08 11:35:30;;;;;;;5.50;1.57;;;8.40;93.00;;;;;;5016685;28;20525;-50
2021/04/08 11:38:08;;;;;;;5.30;1.87;;;8.40;94.00;;;;;;5016311;28;20495;-49
2021/04/08 11:40:35;;;;;;;5.27;1.80;;;8.70;93.90;;;;;;5018082;28;20449;-47
2021/04/08 11:43:21;;;;;;;3.17;1.40;;;8.70;94.30;;;;;;5009752;28;20449;-52
2021/04/08 11:45:48;;;;;;;3.53;1.40;;;8.90;93.00;;;;;;5013454;28;20878;-50
2021/04/08 11:48:16;;;;;;;3.47;1.43;;;8.80;93.10;;;;;;5008607;28;20935;-47
2021/04/08 11:50:45;;;;;;;6.13;2.37;;;8.90;93.60;;;;;;5006571;28;20836;-50
2021/04/08 11:53:14;;;;;;;8.33;2.33;;;9.00;92.80;;;;;;5005842;28;20966;-52
2021/04/08 11:55:43;;;;;;;5.03;1.40;;;9.00;91.80;;;;;;5008224;28;20480;-49
2021/04/08 11:58:12;;;;;;;2.80;1.40;;;9.00;89.60;;;;;;5007934;28;20456;-46
2021/04/08 12:00:40;;;;;;;4.63;1.23;;;8.60;87.30;;;;;;5014387;28;20461;-52
2021/04/08 12:03:19;;;;;;;3.73;1.20;;;8.30;88.90;;;;;;5000232;28;20458;-48
2021/04/08 12:05:46;;;;;;;7.27;1.73;;;8.20;90.40;;;;;;5004073;28;20453;-48
2021/04/08 12:08:13;;;;;;;8.23;1.50;;;8.10;90.10;;;;;;5013256;28;20461;-47
2021/04/08 12:10:40;;;;;;;1.87;1.40;;;8.00;90.60;;;;;;5011467;28;20437;-47
2021/04/08 12:13:10;;;;;;;3.43;1.73;;;8.00;90.00;;;;;;5003828;28;20472;-47
2021/04/08 12:15:47;;;;;;;6.03;1.90;;;8.20;90.90;;;;;;5006183;28;20520;-46
2021/04/08 12:18:18;;;;;;;10.23;1.70;;;8.30;88.00;;;;;;5003425;28;20441;-49
2021/04/08 12:20:47;;;;;;;3.90;1.40;;;8.30;87.70;;;;;;5011715;28;20429;-48
2021/04/08 12:23:16;;;;;;;3.00;1.60;;;8.10;86.30;;;;;;5006671;28;20497;-49
2021/04/08 12:25:45;;;;;;;4.17;1.30;;;8.00;86.30;;;;;;5003640;28;20527;-49
2021/04/08 12:28:13;;;;;;;2.10;0.90;;;8.00;82.90;;;;;;5007212;28;20456;-47
2021/04/08 12:30:46;;;;;;;6.53;2.13;;;8.20;81.60;;;;;;4998126;28;20500;-48
2021/04/08 12:33:18;;;;;;;2.70;1.53;;;8.40;83.90;;;;;;4997187;28;20469;-51
2021/04/08 12:35:46;;;;;;;4.10;1.70;;;8.60;82.30;;;;;;4998332;28;20780;-49
2021/04/08 12:38:13;;;;;;;4.77;1.80;;;8.70;87.20;;;;;;4998938;28;20450;-48
2021/04/08 12:40:40;;;;;;;9.67;2.67;;;8.60;87.80;;;;;;4999037;28;20457;-50
2021/04/08 12:43:07;;;;;;;7.37;2.23;;;8.60;89.80;;;;;;4999002;28;20903;-50
2021/04/08 12:45:34;;;;;;;4.50;1.70;;;8.60;90.10;;;;;;4999110;28;20930;-48
2021/04/08 12:48:00;;;;;;;2.87;1.10;;;8.50;91.00;;;;;;4999309;28;20438;-46
2021/04/08 12:50:28;;;;;;;5.07;1.37;;;8.30;91.90;;;;;;4999580;28;20446;-48
2021/04/08 12:52:55;;;;;;;8.73;1.57;;;8.10;93.60;;;;;;4999834;28;20517;-48
2021/04/08 12:55:25;;;;;;;2.23;1.27;;;7.90;93.80;;;;;;4999149;28;20894;-48
2021/04/08 12:57:53;;;;;;;7.63;1.60;;;7.90;94.40;;;;;;5000275;28;20528;-47
2021/04/08 13:00:21;;;;;;;6.40;1.73;;;7.90;95.20;;;;;;4999352;28;20454;-47
2021/04/08 13:02:48;;;;;;;3.20;1.73;;;7.90;94.90;;;;;;4999934;28;20768;-47
2021/04/08 13:05:15;;;;;;;4.30;1.63;;;8.00;94.30;;;;;;5000428;28;20475;-48